createdAt,value
2022-09-12T00:00:26.736Z,22.78
2022-09-12T00:02:58.789Z,22.89
2022-09-12T00:05:31.637Z,22.99
2022-09-12T00:08:11.658Z,23.10
2022-09-12T00:10:40.304Z,22.90
2022-09-12T00:13:14.147Z,23.03
2022-09-12T00:15:44.583Z,23.10
2022-09-12T00:18:22.043Z,23.22
2022-09-12T00:21:15.517Z,23.02
2022-09-12T00:23:51.437Z,23.12
2022-09-12T00:26:33.073Z,23.16
2022-09-12T00:29:03.752Z,23.09
2022-09-12T00:31:40.123Z,23.09
2022-09-12T00:34:10.929Z,23.04
2022-09-12T00:36:48.042Z,23.10
2022-09-12T00:39:24.062Z,23.17
2022-09-12T00:41:54.987Z,23.15
2022-09-12T00:44:28.896Z,23.20
2022-09-12T00:46:59.745Z,23.09
2022-09-12T00:49:52.690Z,22.96
2022-09-12T00:52:26.916Z,23.03
2022-09-12T00:55:10.050Z,23.10
2022-09-12T00:58:07.497Z,22.85
2022-09-12T01:00:42.121Z,22.78
2022-09-12T01:03:19.807Z,22.80
2022-09-12T01:06:02.498Z,22.80
2022-09-12T01:08:35.555Z,22.79
2022-09-12T01:11:14.648Z,22.94
2022-09-12T01:13:47.028Z,22.80
2022-09-12T01:16:23.076Z,22.88
2022-09-12T01:19:01.752Z,22.86
2022-09-12T01:21:44.799Z,22.75
2022-09-12T01:27:22.489Z,22.51
2022-09-12T01:30:04.675Z,22.47
2022-09-12T01:32:49.393Z,22.53
2022-09-12T01:38:38.210Z,22.49
2022-09-12T01:41:18.156Z,22.55
2022-09-12T01:44:01.392Z,22.48
2022-09-12T01:46:35.984Z,22.51
2022-09-12T01:49:23.812Z,22.03
2022-09-12T01:51:57.125Z,22.32
2022-09-12T01:54:26.900Z,22.44
2022-09-12T01:56:59.881Z,22.58
2022-09-12T01:59:39.898Z,22.58
2022-09-12T02:02:20.660Z,22.50
2022-09-12T02:04:54.198Z,22.51
2022-09-12T02:10:22.198Z,22.24
2022-09-12T02:12:56.510Z,22.39
2022-09-12T02:15:38.626Z,22.32
2022-09-12T02:18:10.129Z,22.28
2022-09-12T02:20:48.996Z,22.31
2022-09-12T02:23:29.320Z,22.06
2022-09-12T02:29:02.415Z,22.23
2022-09-12T02:31:47.034Z,22.03
2022-09-12T02:34:46.617Z,21.80
2022-09-12T02:37:29.657Z,22.01
2022-09-12T02:40:01.330Z,21.98
2022-09-12T02:42:33.855Z,21.81
2022-09-12T02:45:08.312Z,22.13
2022-09-12T02:47:53.504Z,22.16
2022-09-12T02:50:23.985Z,22.38
2022-09-12T02:53:05.925Z,22.28
2022-09-12T02:55:41.515Z,22.25
2022-09-12T02:58:22.422Z,22.33
2022-09-12T03:01:02.825Z,22.31
2022-09-12T03:03:46.279Z,22.34
2022-09-12T03:06:36.789Z,22.19
2022-09-12T03:09:15.762Z,22.23
2022-09-12T03:11:57.915Z,22.31
2022-09-12T03:14:50.031Z,22.34
2022-09-12T03:17:21.235Z,22.17
2022-09-12T03:20:00.569Z,22.12
2022-09-12T03:22:31.127Z,22.11
2022-09-12T03:25:08.503Z,21.80
2022-09-12T03:27:41.621Z,21.92
2022-09-12T03:30:14.933Z,21.93
2022-09-12T03:33:03.732Z,22.02
2022-09-12T03:35:34.778Z,22.04
2022-09-12T03:38:08.326Z,22.04
2022-09-12T03:40:54.069Z,22.05
2022-09-12T03:43:26.008Z,22.17
2022-09-12T03:45:54.598Z,22.10
2022-09-12T03:48:24.951Z,22.07
2022-09-12T03:51:03.987Z,21.95
2022-09-12T03:53:37.760Z,21.98
2022-09-12T03:56:13.708Z,21.96
2022-09-12T03:58:49.185Z,22.11
2022-09-12T04:01:25.868Z,22.22
2022-09-12T04:03:56.351Z,22.22
2022-09-12T04:06:33.781Z,22.08
2022-09-12T04:09:08.258Z,22.03
2022-09-12T04:11:41.090Z,21.96
2022-09-12T04:14:38.876Z,21.83
2022-09-12T04:17:12.280Z,21.67
2022-09-12T04:20:08.282Z,21.72
2022-09-12T04:22:38.347Z,21.93
2022-09-12T04:25:17.537Z,22.01
2022-09-12T04:27:55.642Z,21.77
2022-09-12T04:30:39.186Z,21.72
2022-09-12T04:33:11.276Z,21.58
2022-09-12T04:35:43.405Z,21.01
2022-09-12T04:38:14.054Z,20.87
2022-09-12T04:40:45.363Z,21.34
2022-09-12T04:43:22.994Z,21.67
2022-09-12T04:45:58.234Z,21.79
2022-09-12T04:48:56.502Z,21.85
2022-09-12T04:51:33.833Z,21.78
2022-09-12T04:54:19.030Z,21.75
2022-09-12T04:56:50.809Z,21.72
2022-09-12T04:59:24.669Z,21.68
2022-09-12T05:02:01.007Z,21.66
2022-09-12T05:04:36.633Z,21.75
2022-09-12T05:07:09.549Z,21.89
2022-09-12T05:09:39.549Z,22.00
2022-09-12T05:12:12.524Z,22.07
2022-09-12T05:14:46.702Z,21.86
2022-09-12T05:17:22.593Z,21.71
2022-09-12T05:19:57.236Z,21.76
2022-09-12T05:22:28.305Z,21.86
2022-09-12T05:24:58.641Z,21.74
2022-09-12T05:27:29.813Z,21.84
2022-09-12T05:30:05.176Z,21.63
2022-09-12T05:32:37.875Z,21.41
2022-09-12T05:35:08.626Z,21.34
2022-09-12T05:37:41.359Z,21.51
2022-09-12T05:40:17.846Z,21.44
2022-09-12T05:42:57.987Z,21.64
2022-09-12T05:45:48.805Z,21.56
2022-09-12T05:48:31.349Z,21.70
2022-09-12T05:51:01.455Z,21.30
2022-09-12T05:53:33.049Z,21.19
2022-09-12T05:56:09.820Z,21.38
2022-09-12T05:58:49.521Z,21.64
2022-09-12T06:01:27.239Z,21.74
2022-09-12T06:03:58.881Z,21.66
2022-09-12T06:06:27.949Z,21.69
2022-09-12T06:09:01.729Z,21.77
2022-09-12T06:11:34.748Z,21.82
2022-09-12T06:14:02.960Z,21.81
2022-09-12T06:16:37.249Z,21.85
2022-09-12T06:19:07.121Z,21.82
2022-09-12T06:21:48.255Z,21.87
2022-09-12T06:24:16.660Z,22.01
2022-09-12T06:26:44.868Z,21.90
2022-09-12T06:29:16.676Z,21.68
2022-09-12T06:31:44.434Z,21.85
2022-09-12T06:34:14.272Z,21.77
2022-09-12T06:36:48.907Z,21.45
2022-09-12T06:39:23.455Z,21.73
2022-09-12T06:41:51.792Z,21.96
2022-09-12T06:44:38.076Z,22.02
2022-09-12T06:49:35.968Z,21.95
2022-09-12T06:52:04.117Z,22.02
2022-09-12T06:54:34.387Z,22.15
2022-09-12T06:57:02.640Z,22.17
2022-09-12T06:59:36.054Z,22.26
2022-09-12T07:02:12.849Z,22.18
2022-09-12T07:04:45.934Z,22.24
2022-09-12T07:07:19.662Z,22.28
2022-09-12T07:09:50.579Z,22.20
2022-09-12T07:12:24.060Z,21.78
2022-09-12T07:15:14.250Z,21.76
2022-09-12T07:17:41.896Z,22.02
2022-09-12T07:20:15.440Z,22.20
2022-09-12T07:22:43.991Z,22.34
2022-09-12T07:25:12.102Z,22.52
2022-09-12T07:27:39.721Z,22.58
2022-09-12T07:30:14.701Z,22.58
2022-09-12T07:32:48.003Z,22.74
2022-09-12T07:35:21.301Z,22.94
2022-09-12T07:37:51.654Z,23.03
2022-09-12T07:40:19.342Z,23.18
2022-09-12T07:42:52.075Z,23.34
2022-09-12T07:45:22.453Z,23.33
2022-09-12T07:47:53.396Z,23.11
2022-09-12T07:50:24.286Z,23.37
2022-09-12T07:52:58.585Z,23.51
2022-09-12T07:55:26.716Z,23.57
2022-09-12T07:58:12.027Z,23.64
2022-09-12T08:00:42.823Z,23.80
2022-09-12T08:03:19.326Z,23.57
2022-09-12T08:05:49.115Z,23.72
2022-09-12T08:08:38.800Z,23.64
2022-09-12T08:11:07.825Z,23.59
2022-09-12T08:13:42.040Z,23.51
2022-09-12T08:16:13.589Z,23.66
2022-09-12T08:18:48.395Z,23.66
2022-09-12T08:21:25.938Z,23.70
2022-09-12T08:26:52.415Z,23.98
2022-09-12T08:29:24.644Z,24.18
2022-09-12T08:31:57.098Z,23.86
2022-09-12T08:34:28.312Z,23.85
2022-09-12T08:37:01.577Z,23.85
2022-09-12T08:39:29.504Z,23.83
2022-09-12T08:42:04.512Z,24.07
2022-09-12T08:44:41.095Z,24.15
2022-09-12T08:47:08.773Z,23.81
2022-09-12T08:49:38.225Z,23.94
2022-09-12T08:52:18.656Z,23.72
2022-09-12T08:54:47.877Z,24.10
2022-09-12T08:57:19.592Z,24.14
2022-09-12T08:59:50.997Z,24.52
2022-09-12T09:02:23.185Z,24.79
2022-09-12T09:04:59.975Z,24.76
2022-09-12T09:07:32.076Z,24.72
2022-09-12T09:10:16.131Z,24.90
2022-09-12T09:12:53.754Z,24.80
2022-09-12T09:15:24.973Z,24.68
2022-09-12T09:18:00.909Z,24.79
2022-09-12T09:23:22.628Z,25.28
2022-09-12T09:25:56.183Z,25.37
2022-09-12T09:28:34.038Z,25.54
2022-09-12T09:31:03.594Z,25.63
2022-09-12T09:33:34.049Z,25.75
2022-09-12T09:36:20.554Z,26.11
2022-09-12T09:38:54.147Z,25.44
2022-09-12T09:41:38.655Z,25.36
2022-09-12T09:44:09.394Z,25.02
2022-09-12T09:47:00.559Z,24.86
2022-09-12T09:49:40.378Z,24.88
2022-09-12T09:52:11.743Z,24.80
2022-09-12T09:54:43.804Z,24.65
2022-09-12T09:57:33.609Z,24.95
2022-09-12T10:00:22.390Z,25.27
2022-09-12T10:03:12.763Z,25.40
2022-09-12T10:05:45.863Z,25.79
2022-09-12T10:08:24.527Z,25.24
2022-09-12T10:10:59.288Z,25.15
2022-09-12T10:13:41.153Z,24.84
2022-09-12T10:16:19.787Z,25.10
2022-09-12T10:18:50.316Z,25.59
2022-09-12T10:21:26.927Z,26.01
2022-09-12T10:24:00.292Z,25.87
2022-09-12T10:26:40.962Z,25.79
2022-09-12T10:29:13.358Z,26.29
2022-09-12T10:31:52.742Z,26.30
2022-09-12T10:34:31.378Z,25.78
2022-09-12T10:37:06.429Z,25.71
2022-09-12T10:39:36.240Z,25.67
2022-09-12T10:42:14.004Z,25.91
2022-09-12T10:44:48.015Z,26.24
2022-09-12T10:47:28.717Z,26.28
2022-09-12T10:50:26.496Z,26.26
2022-09-12T10:53:36.647Z,25.71
2022-09-12T10:56:16.307Z,26.22
2022-09-12T10:59:06.192Z,26.39
2022-09-12T11:01:47.838Z,26.59
2022-09-12T11:04:42.080Z,27.04
2022-09-12T11:07:18.432Z,27.37
2022-09-12T11:10:04.201Z,26.74
2022-09-12T11:12:50.192Z,26.93
2022-09-12T11:15:59.528Z,27.48
2022-09-12T11:18:43.643Z,27.85
2022-09-12T11:21:14.438Z,28.24
2022-09-12T11:23:52.875Z,29.01
2022-09-12T11:26:44.846Z,29.95
2022-09-12T11:29:26.869Z,30.93
2022-09-12T11:32:13.916Z,31.55
2022-09-12T11:35:00.291Z,33.01
2022-09-12T11:37:42.065Z,33.94
2022-09-12T11:40:29.056Z,32.36
2022-09-12T11:42:59.751Z,33.28
2022-09-12T11:45:31.227Z,35.22
2022-09-12T11:48:09.749Z,35.74
2022-09-12T11:50:49.181Z,32.66
2022-09-12T11:53:34.098Z,30.53
2022-09-12T11:56:15.986Z,31.27
2022-09-12T11:58:44.339Z,32.65
2022-09-12T12:01:23.697Z,34.38
2022-09-12T12:03:53.888Z,36.34
2022-09-12T12:06:22.584Z,34.75
2022-09-12T12:08:56.053Z,35.99
2022-09-12T12:11:27.964Z,36.67
2022-09-12T12:14:06.204Z,34.60
2022-09-12T12:16:34.255Z,33.76
2022-09-12T12:19:03.609Z,36.54
2022-09-12T12:21:36.717Z,35.91
2022-09-12T12:24:28.319Z,35.45
2022-09-12T12:26:57.659Z,35.34
2022-09-12T12:29:35.237Z,34.95
2022-09-12T12:32:04.189Z,34.89
2022-09-12T12:34:32.447Z,35.64
2022-09-12T12:37:07.385Z,36.81
2022-09-12T12:39:41.135Z,38.40
2022-09-12T12:42:17.062Z,38.91
2022-09-12T12:44:53.550Z,38.26
2022-09-12T12:47:29.114Z,37.07
2022-09-12T12:50:03.737Z,37.83
2022-09-12T12:52:45.889Z,37.23
2022-09-12T12:55:22.801Z,37.43
2022-09-12T12:57:58.040Z,38.95
2022-09-12T13:00:28.817Z,36.53
2022-09-12T13:03:07.106Z,37.98
2022-09-12T13:05:42.074Z,36.27
2022-09-12T13:08:10.592Z,37.06
2022-09-12T13:10:41.177Z,37.95
2022-09-12T13:13:22.180Z,37.07
2022-09-12T13:15:52.804Z,36.28
2022-09-12T13:18:23.355Z,36.53
2022-09-12T13:20:55.154Z,37.32
2022-09-12T13:23:30.299Z,37.20
2022-09-12T13:26:01.024Z,36.25
2022-09-12T13:28:34.636Z,36.26
2022-09-12T13:34:24.583Z,34.97
2022-09-12T13:37:11.146Z,33.79
2022-09-12T13:39:46.336Z,32.63
2022-09-12T13:42:24.208Z,30.97
2022-09-12T13:45:29.876Z,30.63
2022-09-12T13:48:25.725Z,29.50
2022-09-12T13:51:43.658Z,28.85
2022-09-12T13:54:40.300Z,28.62
2022-09-12T13:57:30.183Z,28.56
2022-09-12T14:00:02.688Z,28.60
2022-09-12T14:02:35.436Z,28.16
2022-09-12T14:05:13.366Z,27.92
2022-09-12T14:07:44.981Z,27.63
2022-09-12T14:10:16.813Z,27.54
2022-09-12T14:12:50.828Z,27.38
2022-09-12T14:15:28.531Z,27.46
2022-09-12T14:18:02.085Z,27.37
2022-09-12T14:20:36.359Z,27.42
2022-09-12T14:23:07.857Z,27.65
2022-09-12T14:25:45.253Z,27.71
2022-09-12T14:28:13.041Z,27.74
2022-09-12T14:30:40.899Z,27.81
2022-09-12T14:33:11.487Z,27.80
2022-09-12T14:35:43.523Z,27.67
2022-09-12T14:38:20.097Z,27.63
2022-09-12T14:40:51.400Z,27.52
2022-09-12T14:43:25.510Z,27.52
2022-09-12T14:46:13.269Z,27.45
2022-09-12T14:48:59.127Z,27.30
2022-09-12T14:51:34.430Z,27.27
2022-09-12T14:54:05.818Z,27.21
2022-09-12T14:56:46.557Z,27.34
2022-09-12T14:59:44.778Z,27.42
2022-09-12T15:02:24.287Z,27.21
2022-09-12T15:07:53.980Z,27.22
2022-09-12T15:10:31.164Z,27.26
2022-09-12T15:13:15.992Z,27.23
2022-09-12T15:15:50.482Z,27.08
2022-09-12T15:18:21.545Z,27.22
2022-09-12T15:20:58.860Z,27.29
2022-09-12T15:23:43.014Z,27.17
2022-09-12T15:26:14.654Z,27.12
2022-09-12T15:28:45.308Z,27.12
2022-09-12T15:31:17.290Z,27.09
2022-09-12T15:33:45.175Z,26.95
2022-09-12T15:36:16.798Z,26.76
2022-09-12T15:38:47.858Z,26.84
2022-09-12T15:41:44.806Z,26.90
2022-09-12T15:44:13.215Z,26.78
2022-09-12T15:46:49.133Z,26.90
2022-09-12T15:49:17.265Z,26.90
2022-09-12T15:51:45.012Z,26.99
2022-09-12T15:54:19.192Z,26.90
2022-09-12T15:56:49.810Z,26.85
2022-09-12T15:59:25.173Z,26.88
2022-09-12T16:01:55.932Z,26.75
2022-09-12T16:04:24.648Z,26.79
2022-09-12T16:06:59.889Z,26.75
2022-09-12T16:09:30.073Z,26.66
2022-09-12T16:12:00.679Z,26.60
2022-09-12T16:14:30.842Z,26.49
2022-09-12T16:17:01.424Z,26.45
2022-09-12T16:19:36.755Z,26.49
2022-09-12T16:22:09.668Z,26.37
2022-09-12T16:24:38.018Z,26.43
2022-09-12T16:27:10.745Z,26.17
2022-09-12T16:30:07.314Z,26.22
2022-09-12T16:32:37.454Z,26.01
2022-09-12T16:35:10.600Z,26.16
2022-09-12T16:37:41.799Z,26.07
2022-09-12T16:40:12.157Z,26.10
2022-09-12T16:42:43.828Z,26.00
2022-09-12T16:45:12.244Z,25.87
2022-09-12T16:47:42.249Z,25.86
2022-09-12T16:50:14.963Z,25.71
2022-09-12T16:52:46.413Z,25.67
2022-09-12T16:55:19.186Z,25.79
2022-09-12T16:57:49.771Z,25.89
2022-09-12T17:00:19.741Z,25.96
2022-09-12T17:02:48.157Z,25.90
2022-09-12T17:05:18.166Z,25.86
2022-09-12T17:07:46.334Z,25.87
2022-09-12T17:10:19.723Z,25.86
2022-09-12T17:12:47.379Z,25.92
2022-09-12T17:15:15.174Z,25.93
2022-09-12T17:17:48.793Z,25.92
2022-09-12T17:20:17.006Z,25.96
2022-09-12T17:22:52.249Z,25.93
2022-09-12T17:25:21.139Z,25.86
2022-09-12T17:27:55.141Z,25.49
2022-09-12T17:30:25.626Z,25.39
2022-09-12T17:33:02.218Z,25.47
2022-09-12T17:35:35.542Z,25.59
2022-09-12T17:38:03.371Z,25.53
2022-09-12T17:40:58.880Z,25.56
2022-09-12T17:43:28.116Z,25.60
2022-09-12T17:46:04.777Z,25.63
2022-09-12T17:48:39.150Z,25.52
2022-09-12T17:51:17.260Z,25.36
2022-09-12T17:53:56.220Z,25.45
2022-09-12T17:56:49.830Z,25.46
2022-09-12T17:59:25.063Z,25.48
2022-09-12T18:05:05.829Z,25.30
2022-09-12T18:07:38.935Z,25.36
2022-09-12T18:10:12.438Z,25.39
2022-09-12T18:12:50.672Z,25.19
2022-09-12T18:15:21.990Z,25.31
2022-09-12T18:17:54.924Z,25.20
2022-09-12T18:20:25.289Z,25.13
2022-09-12T18:23:04.947Z,25.10
2022-09-12T18:25:40.481Z,24.97
2022-09-12T18:28:14.232Z,25.05
2022-09-12T18:30:47.192Z,25.16
2022-09-12T18:33:24.020Z,25.12
2022-09-12T18:36:01.004Z,25.06
2022-09-12T18:38:49.548Z,25.02
2022-09-12T18:41:24.080Z,24.89
2022-09-12T18:44:02.348Z,24.96
2022-09-12T18:46:37.439Z,24.88
2022-09-12T18:49:10.339Z,25.02
2022-09-12T18:51:42.001Z,25.04
2022-09-12T18:54:18.805Z,25.08
2022-09-12T18:56:51.253Z,24.90
2022-09-12T18:59:21.652Z,25.07
2022-09-12T19:01:54.223Z,25.16
2022-09-12T19:04:44.690Z,25.08
2022-09-12T19:07:17.731Z,24.84
2022-09-12T19:09:49.076Z,25.01
2022-09-12T19:12:19.773Z,24.62
2022-09-12T19:14:47.732Z,24.77
2022-09-12T19:17:15.291Z,24.60
2022-09-12T19:19:46.154Z,24.80
2022-09-12T19:22:15.860Z,24.53
2022-09-12T19:24:44.285Z,24.66
2022-09-12T19:27:17.182Z,24.83
2022-09-12T19:29:45.861Z,24.80
2022-09-12T19:32:13.409Z,24.90
2022-09-12T19:34:44.058Z,24.85
2022-09-12T19:37:12.213Z,24.83
2022-09-12T19:39:46.086Z,24.99
2022-09-12T19:42:13.723Z,24.94
2022-09-12T19:44:59.381Z,24.85
2022-09-12T19:47:26.985Z,24.94
2022-09-12T19:49:54.821Z,24.83
2022-09-12T19:52:22.487Z,24.76
2022-09-12T19:54:53.075Z,24.78
2022-09-12T19:57:26.536Z,24.82
2022-09-12T20:00:01.514Z,24.93
2022-09-12T20:02:30.133Z,24.84
2022-09-12T20:04:57.790Z,24.59
2022-09-12T20:07:28.333Z,24.06
2022-09-12T20:09:58.904Z,23.96
2022-09-12T20:12:30.253Z,23.98
2022-09-12T20:14:58.775Z,23.89
2022-09-12T20:17:26.553Z,23.56
2022-09-12T20:19:54.520Z,23.41
2022-09-12T20:22:28.355Z,23.68
2022-09-12T20:24:55.839Z,23.71
2022-09-12T20:27:28.041Z,23.75
2022-09-12T20:29:58.419Z,23.48
2022-09-12T20:32:29.062Z,23.94
2022-09-12T20:35:00.729Z,24.09
2022-09-12T20:37:33.786Z,24.20
2022-09-12T20:40:09.923Z,24.30
2022-09-12T20:42:39.687Z,24.08
2022-09-12T20:45:10.212Z,23.96
2022-09-12T20:47:41.648Z,23.97
2022-09-12T20:50:09.685Z,23.79
2022-09-12T20:52:37.190Z,23.79
2022-09-12T20:55:06.898Z,23.70
2022-09-12T20:57:34.378Z,23.77
2022-09-12T21:00:02.015Z,23.85
2022-09-12T21:02:34.750Z,23.89
2022-09-12T21:05:10.814Z,24.00
2022-09-12T21:07:41.225Z,23.78
2022-09-12T21:10:13.890Z,23.60
2022-09-12T21:12:46.942Z,23.79
2022-09-12T21:15:17.258Z,23.59
2022-09-12T21:17:53.079Z,23.88
2022-09-12T21:20:23.451Z,23.88
2022-09-12T21:22:53.699Z,24.16
2022-09-12T21:25:26.009Z,24.23
2022-09-12T21:27:57.519Z,24.37
2022-09-12T21:30:29.935Z,24.22
2022-09-12T21:33:01.473Z,24.10
2022-09-12T21:35:40.864Z,23.98
2022-09-12T21:38:16.813Z,24.21
2022-09-12T21:40:45.382Z,24.01
2022-09-12T21:43:13.970Z,23.92
2022-09-12T21:48:31.839Z,23.89
2022-09-12T21:51:01.727Z,24.01
2022-09-12T21:53:32.179Z,24.04
2022-09-12T21:56:07.819Z,23.84
2022-09-12T21:58:39.406Z,23.99
2022-09-12T22:01:12.716Z,23.68
2022-09-12T22:03:44.348Z,23.69
2022-09-12T22:06:15.025Z,23.85
2022-09-12T22:08:45.001Z,24.03
2022-09-12T22:11:13.335Z,24.02
2022-09-12T22:13:46.183Z,23.99
2022-09-12T22:16:18.692Z,24.04
2022-09-12T22:18:54.628Z,24.07
2022-09-12T22:21:28.472Z,23.88
2022-09-12T22:24:20.609Z,23.90
2022-09-12T22:26:51.365Z,24.10
2022-09-12T22:29:25.086Z,24.07
2022-09-12T22:31:57.934Z,23.89
2022-09-12T22:34:31.703Z,24.09
2022-09-12T22:37:05.830Z,24.02
2022-09-12T22:39:36.363Z,24.21
2022-09-12T22:42:06.240Z,24.22
2022-09-12T22:44:39.443Z,23.92
2022-09-12T22:47:07.005Z,24.08
2022-09-12T22:49:37.392Z,24.20
2022-09-12T22:52:07.478Z,24.23
2022-09-12T22:54:42.544Z,24.20
2022-09-12T22:57:11.318Z,24.12
2022-09-12T22:59:39.778Z,24.19
2022-09-12T23:02:07.170Z,24.14
2022-09-12T23:04:34.432Z,23.78
2022-09-12T23:07:04.075Z,23.90
2022-09-12T23:09:35.231Z,24.00
2022-09-12T23:12:05.579Z,24.02
2022-09-12T23:14:32.861Z,24.16
2022-09-12T23:17:00.194Z,24.04
2022-09-12T23:19:28.383Z,24.03
2022-09-12T23:21:58.009Z,24.06
2022-09-12T23:24:25.589Z,24.03
2022-09-12T23:26:52.792Z,23.98
2022-09-12T23:29:20.035Z,23.97
2022-09-12T23:31:48.117Z,23.74
2022-09-12T23:34:17.967Z,23.89
2022-09-12T23:36:45.867Z,23.96
2022-09-12T23:39:13.313Z,23.90
2022-09-12T23:41:42.999Z,23.99
2022-09-12T23:44:12.616Z,23.88
2022-09-12T23:46:42.221Z,23.90
2022-09-12T23:49:09.549Z,23.91
2022-09-12T23:51:36.843Z,23.92
2022-09-12T23:54:04.492Z,23.95
2022-09-12T23:56:36.520Z,24.01
2022-09-12T23:59:03.863Z,24.04
